createdAt,value
2023-05-11T00:03:10.540Z,13.00
2023-05-11T00:07:12.256Z,11.90
2023-05-11T00:11:13.786Z,11.73
2023-05-11T00:15:15.502Z,11.13
2023-05-11T00:19:17.341Z,9.50
2023-05-11T00:23:18.775Z,11.65
2023-05-11T00:27:20.283Z,10.05
2023-05-11T00:31:21.802Z,10.02
2023-05-11T00:35:23.453Z,11.23
2023-05-11T00:39:24.874Z,12.05
2023-05-11T00:43:27.852Z,12.20
2023-05-11T00:47:29.386Z,10.45
2023-05-11T00:51:32.602Z,10.77
2023-05-11T00:55:34.270Z,9.68
2023-05-11T00:59:35.961Z,10.20
2023-05-11T01:03:38.160Z,10.65
2023-05-11T01:07:59.888Z,12.40
2023-05-11T01:12:14.198Z,12.10
2023-05-11T01:16:20.962Z,11.05
2023-05-11T01:20:27.189Z,8.63
2023-05-11T01:24:48.840Z,11.48
2023-05-11T01:29:11.597Z,10.77
2023-05-11T01:33:15.063Z,8.98
2023-05-11T01:37:22.422Z,11.15
2023-05-11T01:41:28.110Z,10.15
2023-05-11T01:45:32.967Z,10.68
2023-05-11T01:49:38.848Z,12.57
2023-05-11T01:53:42.290Z,10.13
2023-05-11T01:57:44.967Z,11.63
2023-05-11T02:01:47.049Z,11.15
2023-05-11T02:05:50.154Z,13.52
2023-05-11T02:09:53.401Z,11.30
2023-05-11T02:13:58.339Z,12.02
2023-05-11T02:18:00.224Z,13.10
2023-05-11T02:22:03.087Z,14.88
2023-05-11T02:26:06.615Z,17.27
2023-05-11T02:30:09.155Z,15.20
2023-05-11T02:34:23.478Z,13.23
2023-05-11T02:38:35.589Z,13.80
2023-05-11T02:42:39.107Z,20.17
2023-05-11T02:46:42.124Z,13.65
2023-05-11T02:50:44.060Z,15.80
2023-05-11T02:54:45.778Z,12.13
2023-05-11T02:58:48.406Z,13.40
2023-05-11T03:02:52.594Z,16.00
2023-05-11T03:06:54.192Z,13.55
2023-05-11T03:10:57.869Z,13.70
2023-05-11T03:15:00.895Z,18.45
2023-05-11T03:19:06.440Z,15.18
2023-05-11T03:23:09.065Z,15.07
2023-05-11T03:27:11.702Z,14.68
2023-05-11T03:31:14.478Z,15.55
2023-05-11T03:35:16.642Z,16.10
2023-05-11T03:39:19.676Z,14.93
2023-05-11T03:43:22.181Z,15.38
2023-05-11T03:47:26.198Z,12.32
2023-05-11T03:51:27.802Z,12.07
2023-05-11T03:55:29.318Z,10.70
2023-05-11T03:59:30.825Z,10.73
2023-05-11T04:03:32.481Z,8.43
2023-05-11T04:07:34.112Z,11.75
2023-05-11T04:11:39.045Z,10.13
2023-05-11T04:15:40.543Z,8.43
2023-05-11T04:19:42.007Z,11.18
2023-05-11T04:23:43.531Z,10.75
2023-05-11T04:27:44.975Z,9.48
2023-05-11T04:31:46.436Z,9.90
2023-05-11T04:35:50.858Z,8.25
2023-05-11T04:39:52.360Z,9.40
2023-05-11T04:43:53.801Z,11.20
2023-05-11T04:47:55.330Z,8.50
2023-05-11T04:51:57.157Z,8.15
2023-05-11T04:55:58.584Z,9.27
2023-05-11T05:00:00.450Z,8.38
2023-05-11T05:04:02.383Z,9.88
2023-05-11T05:08:03.831Z,8.02
2023-05-11T05:12:05.633Z,9.63
2023-05-11T05:16:07.243Z,8.88
2023-05-11T05:20:09.006Z,9.20
2023-05-11T05:24:12.145Z,9.82
2023-05-11T05:28:13.572Z,9.05
2023-05-11T05:32:15.030Z,6.13
2023-05-11T05:36:16.499Z,7.80
2023-05-11T05:40:18.363Z,6.88
2023-05-11T05:44:20.137Z,7.07
2023-05-11T05:48:21.598Z,6.22
2023-05-11T05:52:23.090Z,6.50
2023-05-11T05:56:24.528Z,7.13
2023-05-11T06:00:26.060Z,6.85
2023-05-11T06:04:27.545Z,10.95
2023-05-11T06:08:29.068Z,9.00
2023-05-11T06:12:31.147Z,8.15
2023-05-11T06:16:32.851Z,6.95
2023-05-11T06:20:34.324Z,6.82
2023-05-11T06:24:35.772Z,8.75
2023-05-11T06:28:37.264Z,4.93
2023-05-11T06:32:38.742Z,7.05
2023-05-11T06:36:40.310Z,7.30
2023-05-11T06:40:41.858Z,6.07
2023-05-11T06:44:43.362Z,6.53
2023-05-11T06:48:44.823Z,3.58
2023-05-11T06:52:46.259Z,8.45
2023-05-11T06:56:47.719Z,6.43
2023-05-11T07:00:49.230Z,4.40
2023-05-11T07:04:50.716Z,4.40
2023-05-11T07:08:52.279Z,5.40
2023-05-11T07:12:53.753Z,7.05
2023-05-11T07:16:55.389Z,4.43
2023-05-11T07:20:56.871Z,4.93
2023-05-11T07:24:59.963Z,6.95
2023-05-11T07:29:01.523Z,5.72
2023-05-11T07:33:03.294Z,4.70
2023-05-11T07:37:04.790Z,3.67
2023-05-11T07:41:07.395Z,4.13
2023-05-11T07:45:10.378Z,6.90
2023-05-11T07:49:17.148Z,3.58
2023-05-11T07:53:24.307Z,4.78
2023-05-11T07:57:25.936Z,4.03
2023-05-11T08:01:27.493Z,5.38
2023-05-11T08:05:30.334Z,3.95
2023-05-11T08:09:32.295Z,8.45
2023-05-11T08:13:34.458Z,4.70
2023-05-11T08:17:36.467Z,3.45
2023-05-11T08:21:38.459Z,4.32
2023-05-11T08:25:39.936Z,3.40
2023-05-11T08:29:41.355Z,3.58
2023-05-11T08:33:42.856Z,5.07
2023-05-11T08:37:44.562Z,3.67
2023-05-11T08:41:46.423Z,4.90
2023-05-11T08:45:54.883Z,5.10
2023-05-11T08:49:58.065Z,7.65
2023-05-11T08:54:00.037Z,5.03
2023-05-11T08:58:05.262Z,3.35
2023-05-11T09:02:07.316Z,3.22
2023-05-11T09:06:10.723Z,5.53
2023-05-11T09:10:13.785Z,4.07
2023-05-11T09:14:15.638Z,3.83
2023-05-11T09:18:17.060Z,5.53
2023-05-11T09:22:18.676Z,5.57
2023-05-11T09:26:21.700Z,4.40
2023-05-11T09:30:23.950Z,8.77
2023-05-11T09:34:25.516Z,3.42
2023-05-11T09:38:26.993Z,5.32
2023-05-11T09:42:30.093Z,6.05
2023-05-11T09:46:31.679Z,3.63
2023-05-11T09:50:34.895Z,3.17
2023-05-11T09:54:44.896Z,2.92
2023-05-11T09:58:50.959Z,5.93
2023-05-11T10:03:01.772Z,4.28
2023-05-11T10:07:06.611Z,2.97
2023-05-11T10:11:08.792Z,2.45
2023-05-11T10:15:11.056Z,3.53
2023-05-11T10:19:13.628Z,2.35
2023-05-11T10:23:16.443Z,3.15
2023-05-11T10:27:21.421Z,2.28
2023-05-11T10:31:24.536Z,2.92
2023-05-11T10:35:26.869Z,2.55
2023-05-11T10:39:31.217Z,3.13
2023-05-11T10:43:57.508Z,5.07
2023-05-11T10:48:14.154Z,3.28
2023-05-11T10:52:24.532Z,2.92
2023-05-11T10:56:28.843Z,2.45
2023-05-11T11:01:22.210Z,2.95
2023-05-11T11:05:38.669Z,2.10
2023-05-11T11:09:53.550Z,2.42
2023-05-11T11:14:01.470Z,4.32
2023-05-11T11:18:29.913Z,4.43
2023-05-11T11:22:41.537Z,2.30
2023-05-11T11:26:49.446Z,3.35
2023-05-11T11:31:22.939Z,5.18
2023-05-11T11:35:39.998Z,2.75
2023-05-11T11:39:41.803Z,2.97
2023-05-11T11:43:47.263Z,3.25
2023-05-11T11:48:06.965Z,2.30
2023-05-11T11:52:33.349Z,3.25
2023-05-11T11:56:39.982Z,3.15
2023-05-11T12:00:42.142Z,2.45
2023-05-11T12:04:56.172Z,2.78
2023-05-11T12:08:57.749Z,2.20
2023-05-11T12:13:00.146Z,2.28
2023-05-11T12:17:08.295Z,2.97
2023-05-11T12:21:23.789Z,7.07
2023-05-11T12:25:25.500Z,3.85
2023-05-11T12:29:27.267Z,2.58
2023-05-11T12:33:28.769Z,4.72
2023-05-11T12:37:31.274Z,4.45
2023-05-11T12:41:33.053Z,4.55
2023-05-11T12:45:34.820Z,2.55
2023-05-11T12:49:36.378Z,2.55
2023-05-11T12:53:39.534Z,3.10
2023-05-11T12:57:41.146Z,2.70
2023-05-11T13:01:42.677Z,7.05
2023-05-11T13:05:44.188Z,3.90
2023-05-11T13:09:59.467Z,2.95
2023-05-11T13:14:16.622Z,5.68
2023-05-11T13:18:18.518Z,1.98
2023-05-11T13:22:20.006Z,4.65
2023-05-11T13:26:30.367Z,3.72
2023-05-11T13:30:34.735Z,5.28
2023-05-11T13:34:37.286Z,3.47
2023-05-11T13:38:38.730Z,2.35
2023-05-11T13:42:41.517Z,2.17
2023-05-11T13:46:43.157Z,2.50
2023-05-11T13:50:44.947Z,4.05
2023-05-11T13:54:46.433Z,2.72
2023-05-11T13:58:47.955Z,2.63
2023-05-11T14:02:50.675Z,5.05
2023-05-11T14:06:52.259Z,3.00
2023-05-11T14:10:53.719Z,2.72
2023-05-11T14:14:55.212Z,2.60
2023-05-11T14:18:56.813Z,3.33
2023-05-11T14:22:59.124Z,2.50
2023-05-11T14:27:00.678Z,2.17
2023-05-11T14:31:02.371Z,2.25
2023-05-11T14:35:04.124Z,4.05
2023-05-11T14:39:05.666Z,2.17
2023-05-11T14:43:07.682Z,5.18
2023-05-11T14:47:09.284Z,2.58
2023-05-11T14:51:10.831Z,3.85
2023-05-11T14:55:12.558Z,3.15
2023-05-11T14:59:14.010Z,4.40
2023-05-11T15:03:15.585Z,3.47
2023-05-11T15:07:17.060Z,5.03
2023-05-11T15:11:19.004Z,2.58
2023-05-11T15:15:20.695Z,4.65
2023-05-11T15:19:22.170Z,4.20
2023-05-11T15:23:23.699Z,3.55
2023-05-11T15:27:25.167Z,2.05
2023-05-11T15:31:26.685Z,3.83
2023-05-11T15:35:28.141Z,3.70
2023-05-11T15:39:29.577Z,3.33
2023-05-11T15:43:31.110Z,5.88
2023-05-11T15:47:32.681Z,3.75
2023-05-11T15:51:34.266Z,2.10
2023-05-11T15:55:39.087Z,2.33
2023-05-11T15:59:40.592Z,3.30
2023-05-11T16:03:42.052Z,4.82
2023-05-11T16:07:43.777Z,2.20
2023-05-11T16:11:45.593Z,2.45
2023-05-11T16:15:47.089Z,2.72
2023-05-11T16:19:48.575Z,2.58
2023-05-11T16:23:50.027Z,2.72
2023-05-11T16:27:51.655Z,2.72
2023-05-11T16:31:53.377Z,4.03
2023-05-11T16:35:55.142Z,3.65
2023-05-11T16:39:56.623Z,2.40
2023-05-11T16:43:58.175Z,4.28
2023-05-11T16:47:59.683Z,9.48
2023-05-11T16:52:04.748Z,16.45
2023-05-11T16:56:06.347Z,5.80
2023-05-11T17:00:09.119Z,3.97
2023-05-11T17:04:13.379Z,3.85
2023-05-11T17:08:15.211Z,3.78
2023-05-11T17:12:16.666Z,4.18
2023-05-11T17:16:23.556Z,2.72
2023-05-11T17:20:25.291Z,4.57
2023-05-11T17:24:26.810Z,1.90
2023-05-11T17:28:28.355Z,2.85
2023-05-11T17:32:30.238Z,3.30
2023-05-11T17:36:32.429Z,2.88
2023-05-11T17:40:34.219Z,3.08
2023-05-11T17:44:36.583Z,4.35
2023-05-11T17:48:38.083Z,3.75
2023-05-11T17:52:39.540Z,2.28
2023-05-11T17:56:41.291Z,3.35
2023-05-11T18:00:48.971Z,3.28
2023-05-11T18:04:51.100Z,3.35
2023-05-11T18:08:52.613Z,3.72
2023-05-11T18:12:54.455Z,4.07
2023-05-11T18:16:56.332Z,3.00
2023-05-11T18:20:57.953Z,3.42
2023-05-11T18:24:59.604Z,3.08
2023-05-11T18:29:02.004Z,3.30
2023-05-11T18:33:03.603Z,5.40
2023-05-11T18:37:05.267Z,3.70
2023-05-11T18:41:08.494Z,7.63
2023-05-11T18:45:10.503Z,8.65
2023-05-11T18:49:12.190Z,3.08
2023-05-11T18:53:13.754Z,4.00
2023-05-11T18:57:18.738Z,4.88
2023-05-11T19:01:20.430Z,6.63
2023-05-11T19:05:22.389Z,3.40
2023-05-11T19:09:24.164Z,3.63
2023-05-11T19:13:25.647Z,8.35
2023-05-11T19:17:27.284Z,5.63
2023-05-11T19:21:28.928Z,6.45
2023-05-11T19:25:30.871Z,2.88
2023-05-11T19:29:32.624Z,3.90
2023-05-11T19:33:34.236Z,4.53
2023-05-11T19:37:35.876Z,8.80
2023-05-11T19:41:37.452Z,3.55
2023-05-11T19:45:39.230Z,4.43
2023-05-11T19:49:41.569Z,6.55
2023-05-11T19:53:43.503Z,4.28
2023-05-11T19:57:45.056Z,6.22
2023-05-11T20:01:46.868Z,4.18
2023-05-11T20:05:48.564Z,6.25
2023-05-11T20:09:50.304Z,6.93
2023-05-11T20:13:53.544Z,7.88
2023-05-11T20:17:55.384Z,3.40
2023-05-11T20:21:57.734Z,4.80
2023-05-11T20:25:59.362Z,3.50
2023-05-11T20:30:01.972Z,4.13
2023-05-11T20:38:07.964Z,4.35
2023-05-11T20:42:09.405Z,4.05
2023-05-11T20:46:11.521Z,4.55
2023-05-11T20:50:15.099Z,4.88
2023-05-11T20:54:16.871Z,5.30
2023-05-11T20:58:18.398Z,5.63
2023-05-11T21:02:20.063Z,5.03
2023-05-11T21:06:21.811Z,4.28
2023-05-11T21:10:24.099Z,3.72
2023-05-11T21:14:25.843Z,3.30
2023-05-11T21:18:32.087Z,4.70
2023-05-11T21:22:37.433Z,3.78
2023-05-11T21:26:38.888Z,6.97
2023-05-11T21:30:40.326Z,4.97
2023-05-11T21:34:42.483Z,5.18
2023-05-11T21:38:44.573Z,4.70
2023-05-11T21:42:46.211Z,3.80
2023-05-11T21:46:47.821Z,4.90
2023-05-11T21:50:53.695Z,5.03
2023-05-11T21:54:55.174Z,5.00
2023-05-11T21:58:56.644Z,4.10
2023-05-11T22:02:58.139Z,4.53
2023-05-11T22:07:01.229Z,4.05
2023-05-11T22:11:02.811Z,6.68
2023-05-11T22:15:06.527Z,4.68
2023-05-11T22:19:08.724Z,7.50
2023-05-11T22:23:10.282Z,5.40
2023-05-11T22:27:15.401Z,6.13
2023-05-11T22:31:16.909Z,5.57
2023-05-11T22:35:18.370Z,4.70
2023-05-11T22:39:19.980Z,5.68
2023-05-11T22:43:21.909Z,5.22
2023-05-11T22:47:23.668Z,4.90
2023-05-11T22:51:25.226Z,5.18
2023-05-11T22:55:26.637Z,7.15
2023-05-11T22:59:28.070Z,4.25
2023-05-11T23:03:29.692Z,4.65
2023-05-11T23:07:31.549Z,5.05
2023-05-11T23:11:32.996Z,5.63
2023-05-11T23:15:34.432Z,4.55
2023-05-11T23:19:36.023Z,4.68
2023-05-11T23:23:37.632Z,5.22
2023-05-11T23:27:39.117Z,6.20
2023-05-11T23:31:41.222Z,5.85
2023-05-11T23:35:42.819Z,5.60
2023-05-11T23:39:44.368Z,7.07
2023-05-11T23:43:45.855Z,4.72
2023-05-11T23:47:47.380Z,5.85
2023-05-11T23:51:48.882Z,6.47
2023-05-11T23:55:50.360Z,6.65
2023-05-11T23:59:51.830Z,5.53
